Time,TemperatureF,DewpointF,PressureIn,WindDirection,WindDirectionDegrees,WindSpeedMPH,WindSpeedGustMPH,Humidity,HourlyPrecipIn,Conditions,Clouds,dailyrainin,SolarRadiationWatts/m^2,SoftwareType,DateUTC
2013-01-30 00:21:00,16.0,13.0,-100.00,East,96,4.0,5.0,89,0.00,,,0.09,0.000000,,2013-01-30 07:21:00,
2013-01-30 00:31:00,16.0,13.0,-100.00,East,96,4.0,5.0,89,0.00,,,0.09,0.000000,,2013-01-30 07:31:00,
2013-01-30 00:41:00,16.0,13.0,-100.00,East,96,4.0,5.0,89,0.00,,,0.09,0.000000,,2013-01-30 07:41:00,
2013-01-30 00:52:00,16.0,13.0,-100.00,East,96,4.0,5.0,89,0.00,,,0.09,0.000000,,2013-01-30 07:52:00,
2013-01-30 01:21:00,15.0,13.0,-100.00,East,96,3.0,7.0,91,0.00,,,0.09,0.000000,,2013-01-30 08:21:00,
2013-01-30 01:32:00,15.0,13.0,-100.00,East,96,3.0,7.0,91,0.00,,,0.09,0.000000,,2013-01-30 08:32:00,
2013-01-30 01:42:00,15.0,13.0,-100.00,East,96,3.0,7.0,91,0.00,,,0.09,0.000000,,2013-01-30 08:42:00,
2013-01-30 01:52:00,15.0,13.0,-100.00,East,96,3.0,7.0,91,0.00,,,0.09,0.000000,,2013-01-30 08:52:00,
2013-01-30 02:21:00,12.0,10.0,-100.00,East,91,5.0,8.0,90,0.00,,,0.09,0.000000,,2013-01-30 09:21:00,
2013-01-30 02:32:00,12.0,10.0,-100.00,East,91,5.0,8.0,90,0.00,,,0.09,0.000000,,2013-01-30 09:32:00,
2013-01-30 02:41:00,12.0,10.0,-100.00,East,91,5.0,8.0,90,0.00,,,0.09,0.000000,,2013-01-30 09:41:00,
2013-01-30 02:51:00,12.0,10.0,-100.00,East,91,5.0,8.0,90,0.00,,,0.09,0.000000,,2013-01-30 09:51:00,
2013-01-30 03:21:00,12.0,9.0,-100.00,East,97,5.0,8.0,87,0.00,,,0.09,0.000000,,2013-01-30 10:21:00,
2013-01-30 03:31:00,12.0,9.0,-100.00,East,97,5.0,8.0,87,0.00,,,0.09,0.000000,,2013-01-30 10:31:00,
2013-01-30 03:41:00,12.0,9.0,-100.00,East,97,5.0,8.0,87,0.00,,,0.09,0.000000,,2013-01-30 10:41:00,
2013-01-30 03:52:00,12.0,9.0,-100.00,East,97,5.0,8.0,87,0.00,,,0.09,0.000000,,2013-01-30 10:52:00,
2013-01-30 04:22:00,11.0,8.0,-100.00,East,92,5.0,9.0,89,0.00,,,0.09,0.000000,,2013-01-30 11:22:00,
2013-01-30 04:32:00,11.0,8.0,-100.00,East,92,5.0,9.0,89,0.00,,,0.09,0.000000,,2013-01-30 11:32:00,
2013-01-30 04:42:00,11.0,8.0,-100.00,East,92,5.0,9.0,89,0.00,,,0.09,0.000000,,2013-01-30 11:42:00,
2013-01-30 04:52:00,11.0,8.0,-100.00,East,92,5.0,9.0,89,0.00,,,0.09,0.000000,,2013-01-30 11:52:00,
2013-01-30 05:22:00,11.0,7.0,-100.00,East,85,7.0,12.0,84,0.00,,,0.09,0.000000,,2013-01-30 12:22:00,
2013-01-30 05:32:00,11.0,7.0,-100.00,East,85,7.0,12.0,84,0.00,,,0.09,0.000000,,2013-01-30 12:32:00,
2013-01-30 05:42:00,11.0,7.0,-100.00,East,85,7.0,12.0,84,0.00,,,0.09,0.000000,,2013-01-30 12:42:00,
2013-01-30 06:22:00,12.0,8.0,-100.00,East,97,5.0,11.0,82,0.00,,,0.09,0.000000,,2013-01-30 13:22:00,
2013-01-30 06:32:00,12.0,8.0,-100.00,East,97,5.0,11.0,82,0.00,,,0.09,0.000000,,2013-01-30 13:32:00,
2013-01-30 06:42:00,12.0,8.0,-100.00,East,97,5.0,11.0,82,0.00,,,0.09,0.000000,,2013-01-30 13:42:00,
2013-01-30 06:52:00,12.0,8.0,-100.00,East,97,5.0,11.0,82,0.00,,,0.09,0.000000,,2013-01-30 13:52:00,
2013-01-30 07:22:00,12.0,8.0,-100.00,East,81,5.0,12.0,82,0.00,,,0.09,0.000000,,2013-01-30 14:22:00,
2013-01-30 07:32:00,12.0,8.0,-100.00,East,81,5.0,12.0,82,0.00,,,0.09,0.000000,,2013-01-30 14:32:00,
2013-01-30 07:42:00,12.0,8.0,-100.00,East,81,5.0,12.0,82,0.00,,,0.09,0.000000,,2013-01-30 14:42:00,
2013-01-30 07:52:00,12.0,8.0,-100.00,East,81,5.0,12.0,82,0.00,,,0.09,0.000000,,2013-01-30 14:52:00,
2013-01-30 08:23:00,12.0,7.0,-100.00,NW,310,1.0,9.0,80,0.00,,,0.09,0.000000,,2013-01-30 15:23:00,
2013-01-30 08:33:00,12.0,7.0,-100.00,NW,310,1.0,9.0,80,0.00,,,0.09,0.000000,,2013-01-30 15:33:00,
2013-01-30 08:43:00,12.0,7.0,-100.00,NW,310,1.0,9.0,80,0.00,,,0.09,0.000000,,2013-01-30 15:43:00,
2013-01-30 08:52:00,12.0,7.0,-100.00,NW,310,1.0,9.0,80,0.00,,,0.09,0.000000,,2013-01-30 15:52:00,
2013-01-30 09:23:00,14.0,6.0,-100.00,NE,34,0.0,7.0,71,0.00,,,0.09,17.000000,,2013-01-30 16:23:00,
2013-01-30 09:32:00,14.0,6.0,-100.00,NE,34,0.0,7.0,71,0.00,,,0.09,17.000000,,2013-01-30 16:32:00,
2013-01-30 09:42:00,14.0,6.0,-100.00,NE,34,0.0,7.0,71,0.00,,,0.09,17.000000,,2013-01-30 16:42:00,
2013-01-30 09:51:00,14.0,6.0,-100.00,NE,34,0.0,7.0,71,0.00,,,0.09,17.000000,,2013-01-30 16:51:00,
2013-01-30 10:22:00,18.0,9.0,-100.00,SE,137,3.0,5.0,66,-99.99,,,0.09,148.000000,,2013-01-30 17:22:00,
2013-01-30 10:32:00,18.0,9.0,-100.00,SE,137,3.0,5.0,66,-99.99,,,0.09,148.000000,,2013-01-30 17:32:00,
2013-01-30 10:42:00,18.0,9.0,-100.00,SE,137,3.0,5.0,66,-99.99,,,0.09,148.000000,,2013-01-30 17:42:00,
2013-01-30 10:52:00,18.0,9.0,-100.00,SE,137,3.0,5.0,66,-99.99,,,0.09,148.000000,,2013-01-30 17:52:00,
2013-01-30 11:22:00,22.0,8.0,-100.00,ESE,120,2.0,7.0,55,0.00,,,0.04,324.000000,,2013-01-30 18:22:00,
2013-01-30 11:33:00,22.0,8.0,-100.00,ESE,120,2.0,7.0,55,0.00,,,0.04,324.000000,,2013-01-30 18:33:00,
2013-01-30 11:42:00,22.0,8.0,-100.00,ESE,120,2.0,7.0,55,0.00,,,0.04,324.000000,,2013-01-30 18:42:00,
2013-01-30 11:51:00,22.0,8.0,-100.00,ESE,120,2.0,7.0,55,0.00,,,0.04,324.000000,,2013-01-30 18:51:00,
2013-01-30 12:22:00,33.0,18.0,-100.00,NE,47,3.0,5.0,54,0.00,,,0.01,492.000000,,2013-01-30 19:22:00,
2013-01-30 12:32:00,33.0,18.0,-100.00,NE,47,3.0,5.0,54,0.00,,,0.01,492.000000,,2013-01-30 19:32:00,
2013-01-30 12:42:00,33.0,18.0,-100.00,NE,47,3.0,5.0,54,0.00,,,0.01,492.000000,,2013-01-30 19:42:00,
2013-01-30 12:52:00,33.0,18.0,-100.00,NE,47,3.0,5.0,54,0.00,,,0.01,492.000000,,2013-01-30 19:52:00,
2013-01-30 13:22:00,31.0,11.0,-100.00,NW,309,2.0,6.0,43,0.00,,,0.00,587.000000,,2013-01-30 20:22:00,
2013-01-30 13:33:00,31.0,11.0,-100.00,NW,309,2.0,6.0,43,0.00,,,0.00,587.000000,,2013-01-30 20:33:00,
2013-01-30 13:42:00,31.0,11.0,-100.00,NW,309,2.0,6.0,43,0.00,,,0.00,587.000000,,2013-01-30 20:42:00,
2013-01-30 13:52:00,31.0,11.0,-100.00,NW,309,2.0,6.0,43,0.00,,,0.00,587.000000,,2013-01-30 20:52:00,
2013-01-30 14:22:00,37.0,20.0,-100.00,ESE,119,3.0,6.0,49,0.00,,,0.00,561.000000,,2013-01-30 21:22:00,
2013-01-30 14:32:00,37.0,20.0,-100.00,ESE,119,3.0,6.0,49,0.00,,,0.00,561.000000,,2013-01-30 21:32:00,
2013-01-30 14:42:00,37.0,20.0,-100.00,ESE,119,3.0,6.0,49,0.00,,,0.00,561.000000,,2013-01-30 21:42:00,
2013-01-30 14:52:00,37.0,20.0,-100.00,ESE,119,3.0,6.0,49,0.00,,,0.00,561.000000,,2013-01-30 21:52:00,
2013-01-30 15:22:00,32.0,20.0,-100.00,East,82,7.0,7.0,61,0.00,,,0.00,498.000000,,2013-01-30 22:22:00,
2013-01-30 15:32:00,32.0,20.0,-100.00,East,82,7.0,7.0,61,0.00,,,0.00,498.000000,,2013-01-30 22:32:00,
2013-01-30 15:41:00,32.0,20.0,-100.00,East,82,7.0,7.0,61,0.00,,,0.00,498.000000,,2013-01-30 22:41:00,
2013-01-30 15:52:00,32.0,20.0,-100.00,East,82,7.0,7.0,61,0.00,,,0.00,498.000000,,2013-01-30 22:52:00,
2013-01-30 16:22:00,32.0,24.0,-100.00,ENE,76,7.0,11.0,71,0.00,,,0.00,318.000000,,2013-01-30 23:22:00,
2013-01-30 16:32:00,32.0,24.0,-100.00,ENE,76,7.0,11.0,71,0.00,,,0.00,318.000000,,2013-01-30 23:32:00,
2013-01-30 16:42:00,32.0,24.0,-100.00,ENE,76,7.0,11.0,71,0.00,,,0.00,318.000000,,2013-01-30 23:42:00,
2013-01-30 16:52:00,32.0,24.0,-100.00,ENE,76,7.0,11.0,71,0.00,,,0.00,318.000000,,2013-01-30 23:52:00,
2013-01-30 17:21:00,30.0,24.0,-100.00,ENE,75,8.0,15.0,77,0.00,,,0.00,169.000000,,2013-01-31 00:21:00,
2013-01-30 17:32:00,30.0,24.0,-100.00,ENE,75,8.0,15.0,77,0.00,,,0.00,169.000000,,2013-01-31 00:32:00,
2013-01-30 17:42:00,30.0,24.0,-100.00,ENE,75,8.0,15.0,77,0.00,,,0.00,169.000000,,2013-01-31 00:42:00,
2013-01-30 17:52:00,30.0,24.0,-100.00,ENE,75,8.0,15.0,77,0.00,,,0.00,169.000000,,2013-01-31 00:52:00,
2013-01-30 18:21:00,29.0,23.0,-100.00,East,85,6.0,13.0,78,0.00,,,0.00,80.000000,,2013-01-31 01:21:00,
2013-01-30 18:31:00,29.0,23.0,-100.00,East,85,6.0,13.0,78,0.00,,,0.00,80.000000,,2013-01-31 01:31:00,
2013-01-30 18:41:00,29.0,23.0,-100.00,East,85,6.0,13.0,78,0.00,,,0.00,80.000000,,2013-01-31 01:41:00,
2013-01-30 18:52:00,29.0,23.0,-100.00,East,85,6.0,13.0,78,0.00,,,0.00,80.000000,,2013-01-31 01:52:00,
2013-01-30 19:21:00,29.0,24.0,-100.00,East,101,5.0,13.0,80,0.00,,,0.00,7.000000,,2013-01-31 02:21:00,
2013-01-30 19:32:00,29.0,24.0,-100.00,East,101,5.0,13.0,80,0.00,,,0.00,7.000000,,2013-01-31 02:32:00,
2013-01-30 19:41:00,29.0,24.0,-100.00,East,101,5.0,13.0,80,0.00,,,0.00,7.000000,,2013-01-31 02:41:00,
2013-01-30 19:52:00,29.0,24.0,-100.00,East,101,5.0,13.0,80,0.00,,,0.00,7.000000,,2013-01-31 02:52:00,
2013-01-30 20:21:00,30.0,25.0,-100.00,ESE,105,5.0,10.0,82,0.00,,,0.00,0.000000,,2013-01-31 03:21:00,
2013-01-30 20:32:00,30.0,25.0,-100.00,ESE,105,5.0,10.0,82,0.00,,,0.00,0.000000,,2013-01-31 03:32:00,
2013-01-30 20:41:00,30.0,25.0,-100.00,ESE,105,5.0,10.0,82,0.00,,,0.00,0.000000,,2013-01-31 03:41:00,
2013-01-30 20:51:00,30.0,25.0,-100.00,ESE,105,5.0,10.0,82,0.00,,,0.00,0.000000,,2013-01-31 03:51:00,
2013-01-30 21:22:00,30.0,25.0,-100.00,East,98,5.0,8.0,83,0.00,,,0.00,0.000000,,2013-01-31 04:22:00,
2013-01-30 21:31:00,30.0,25.0,-100.00,East,98,5.0,8.0,83,0.00,,,0.00,0.000000,,2013-01-31 04:31:00,
2013-01-30 21:41:00,30.0,25.0,-100.00,East,98,5.0,8.0,83,0.00,,,0.00,0.000000,,2013-01-31 04:41:00,
2013-01-30 21:51:00,30.0,25.0,-100.00,East,98,5.0,8.0,83,0.00,,,0.00,0.000000,,2013-01-31 04:51:00,
2013-01-30 22:22:00,30.0,27.0,-100.00,SSW,205,0.0,10.0,87,0.00,,,0.00,0.000000,,2013-01-31 05:22:00,
2013-01-30 22:31:00,30.0,27.0,-100.00,SSW,205,0.0,10.0,87,0.00,,,0.00,0.000000,,2013-01-31 05:31:00,
2013-01-30 22:41:00,30.0,27.0,-100.00,SSW,205,0.0,10.0,87,0.00,,,0.00,0.000000,,2013-01-31 05:41:00,
2013-01-30 22:51:00,30.0,27.0,-100.00,SSW,205,0.0,10.0,87,0.00,,,0.00,0.000000,,2013-01-31 05:51:00,